createdAt,value
2019-05-15T00:00:39.753Z,8.6
2019-05-15T00:01:42.209Z,8.5
2019-05-15T00:02:44.096Z,8.1
2019-05-15T00:03:45.983Z,8.9
2019-05-15T00:04:50.368Z,9.1
2019-05-15T00:05:51.683Z,9
2019-05-15T00:06:53.303Z,8.4
2019-05-15T00:07:55.189Z,8.8
2019-05-15T00:08:59.284Z,9.1
2019-05-15T00:10:01.171Z,8.8
2019-05-15T00:11:03.057Z,9.1
2019-05-15T00:12:04.945Z,8.8
2019-05-15T00:13:09.672Z,8.8
2019-05-15T00:14:11.268Z,8.6
2019-05-15T00:15:13.172Z,9.3
2019-05-15T00:16:14.247Z,8.7
2019-05-15T00:17:15.861Z,8.7
2019-05-15T00:18:19.298Z,9
2019-05-15T00:19:21.183Z,8.7
2019-05-15T00:20:23.070Z,8.1
2019-05-15T00:21:24.958Z,8.3
2019-05-15T00:22:28.997Z,9.2
2019-05-15T00:23:31.054Z,8.4
2019-05-15T00:24:32.938Z,8.5
2019-05-15T00:25:34.825Z,8.6
2019-05-15T00:26:38.987Z,9.3
2019-05-15T00:27:40.880Z,8.8
2019-05-15T00:28:42.765Z,8.3
2019-05-15T00:29:44.656Z,8.6
2019-05-15T00:30:49.088Z,9.1
2019-05-15T00:31:50.984Z,8.9
2019-05-15T00:32:52.874Z,8.1
2019-05-15T00:33:54.763Z,8.8
2019-05-15T00:34:58.756Z,8.3
2019-05-15T00:36:00.372Z,8.5
2019-05-15T00:37:02.241Z,8.4
2019-05-15T00:38:03.933Z,8.7
2019-05-15T00:39:05.550Z,8.5
2019-05-15T00:40:10.103Z,8.3
2019-05-15T00:41:11.965Z,8.5
2019-05-15T00:42:13.554Z,8.1
2019-05-15T00:43:15.421Z,8.4
2019-05-15T00:44:19.794Z,8
2019-05-15T00:45:21.381Z,8.4
2019-05-15T00:46:23.244Z,8.4
2019-05-15T00:47:25.109Z,7.9
2019-05-15T00:48:29.012Z,9
2019-05-15T00:49:30.772Z,8.1
2019-05-15T00:50:32.071Z,8.7
2019-05-15T00:51:33.940Z,8.3
2019-05-15T00:52:35.520Z,7.9
2019-05-15T00:53:39.846Z,8.4
2019-05-15T00:54:41.433Z,8.4
2019-05-15T00:55:43.308Z,8
2019-05-15T00:56:45.179Z,8.4
2019-05-15T00:57:49.416Z,8
2019-05-15T00:58:51.279Z,8.2
2019-05-15T00:59:52.853Z,8
2019-05-15T01:00:54.718Z,8
2019-05-15T01:01:56.584Z,8.2
2019-05-15T01:03:00.791Z,8.5
2019-05-15T01:04:02.358Z,8.5
2019-05-15T01:05:04.234Z,8.9
2019-05-15T01:06:08.136Z,8.6
2019-05-15T01:07:10.142Z,8.4
2019-05-15T01:08:11.999Z,8.6
2019-05-15T01:09:14.110Z,8.8
2019-05-15T01:10:15.697Z,9.7
2019-05-15T01:11:20.145Z,9.2
2019-05-15T01:12:22.027Z,9.1
2019-05-15T01:13:23.888Z,10
2019-05-15T01:14:27.745Z,10.1
2019-05-15T01:15:30.065Z,9.9
2019-05-15T01:16:31.927Z,9.5
2019-05-15T01:17:33.788Z,9.6
2019-05-15T01:18:35.650Z,9.9
2019-05-15T01:19:39.833Z,10.2
2019-05-15T01:20:41.690Z,9.6
2019-05-15T01:21:43.550Z,9.6
2019-05-15T01:22:45.161Z,9.9
2019-05-15T01:23:48.233Z,9.5
2019-05-15T01:24:50.186Z,9.7
2019-05-15T01:25:52.051Z,9.8
2019-05-15T01:26:53.638Z,10.5
2019-05-15T01:27:55.507Z,10.4
2019-05-15T01:28:59.717Z,9.9
2019-05-15T01:30:01.576Z,10.2
2019-05-15T01:31:03.165Z,10
2019-05-15T01:32:05.026Z,10
2019-05-15T01:33:09.361Z,10.6
2019-05-15T01:34:11.220Z,10.4
2019-05-15T01:35:13.078Z,10.5
2019-05-15T01:36:14.940Z,9.8
2019-05-15T01:37:19.374Z,9.8
2019-05-15T01:38:20.979Z,10
2019-05-15T01:39:22.834Z,10.2
2019-05-15T01:40:24.693Z,10
2019-05-15T01:41:28.694Z,10.1
2019-05-15T01:42:30.555Z,9.8
2019-05-15T01:43:32.414Z,10.1
2019-05-15T01:44:34.282Z,9.7
2019-05-15T01:45:36.148Z,9.6
2019-05-15T01:46:40.615Z,10.1
2019-05-15T01:47:42.472Z,10.8
2019-05-15T01:48:44.334Z,10.2
2019-05-15T01:49:46.195Z,10.6
2019-05-15T01:50:50.526Z,10.4
2019-05-15T01:51:52.385Z,10.2
2019-05-15T01:52:54.247Z,10.9
2019-05-15T01:53:58.235Z,9.9
2019-05-15T01:55:00.200Z,10.5
2019-05-15T01:56:01.536Z,10
2019-05-15T01:57:03.146Z,10.2
2019-05-15T01:58:05.009Z,10.3
2019-05-15T01:59:09.232Z,10
2019-05-15T02:00:10.817Z,10.5
2019-05-15T02:01:12.676Z,10.4
2019-05-15T02:02:14.540Z,10.2
2019-05-15T02:03:18.159Z,9.9
2019-05-15T02:04:20.449Z,10.6
2019-05-15T02:05:22.018Z,10.3
2019-05-15T02:06:23.888Z,9.9
2019-05-15T02:07:27.954Z,10.3
2019-05-15T02:08:29.885Z,10.7
2019-05-15T02:09:31.745Z,10
2019-05-15T02:10:33.602Z,10.5
2019-05-15T02:11:35.470Z,10.3
2019-05-15T02:12:40.147Z,10.1
2019-05-15T02:13:42.005Z,10.6
2019-05-15T02:14:43.872Z,10.5
2019-05-15T02:15:45.737Z,10.5
2019-05-15T02:16:49.623Z,9.9
2019-05-15T02:17:51.530Z,9.9
2019-05-15T02:18:53.421Z,10.7
2019-05-15T02:19:55.288Z,10.4
2019-05-15T02:20:59.709Z,10.5
2019-05-15T02:22:01.297Z,10.1
2019-05-15T02:23:02.886Z,9.8
2019-05-15T02:24:04.761Z,9.6
2019-05-15T02:25:09.187Z,9.5
2019-05-15T02:26:11.046Z,9.9
2019-05-15T02:27:12.915Z,10
2019-05-15T02:28:14.777Z,10
2019-05-15T02:29:25.465Z,9.6
2019-05-15T02:30:34.989Z,9.6
2019-05-15T02:31:40.138Z,10
2019-05-15T02:32:41.733Z,10.2
2019-05-15T02:33:43.601Z,10.1
2019-05-15T02:34:45.477Z,9.8
2019-05-15T02:35:51.087Z,10
2019-05-15T02:36:52.960Z,10.6
2019-05-15T02:37:54.830Z,9.7
2019-05-15T02:39:00.192Z,10.3
2019-05-15T02:40:02.216Z,10.3
2019-05-15T02:41:04.074Z,9.5
2019-05-15T02:42:09.536Z,10.1
2019-05-15T02:43:11.812Z,10.1
2019-05-15T02:44:13.672Z,9.8
2019-05-15T02:45:15.543Z,10.3
2019-05-15T02:46:20.723Z,9.8
2019-05-15T02:47:22.589Z,10.4
2019-05-15T02:48:24.196Z,10.1
2019-05-15T02:49:26.061Z,10
2019-05-15T02:50:31.532Z,10.2
2019-05-15T02:51:33.133Z,9.7
2019-05-15T02:52:34.727Z,9.6
2019-05-15T02:53:40.028Z,10
2019-05-15T02:54:41.945Z,10.1
2019-05-15T02:55:43.795Z,10.1
2019-05-15T02:56:45.658Z,10.1
2019-05-15T02:57:50.095Z,9.7
2019-05-15T02:58:51.683Z,10.1
2019-05-15T02:59:53.547Z,10.7
2019-05-15T03:00:58.886Z,10
2019-05-15T03:02:01.077Z,10.4
2019-05-15T03:03:03.032Z,10.1
2019-05-15T03:04:04.945Z,10.9
2019-05-15T03:05:10.324Z,10.6
2019-05-15T03:06:11.899Z,10.8
2019-05-15T03:07:13.760Z,11
2019-05-15T03:08:19.271Z,11.2
2019-05-15T03:09:21.057Z,11.2
2019-05-15T03:10:22.639Z,11.2
2019-05-15T03:11:24.499Z,11.4
2019-05-15T03:12:29.483Z,11.3
2019-05-15T03:13:31.345Z,10.9
2019-05-15T03:14:33.206Z,11.5
2019-05-15T03:15:35.070Z,11.9
2019-05-15T03:16:40.334Z,11.4
2019-05-15T03:17:42.193Z,11.6
2019-05-15T03:18:44.054Z,11.8
2019-05-15T03:19:45.348Z,11.6
2019-05-15T03:20:50.746Z,11.9
2019-05-15T03:21:52.609Z,11.4
2019-05-15T03:22:54.466Z,11.7
2019-05-15T03:23:59.864Z,11.6
2019-05-15T03:25:01.495Z,11.7
2019-05-15T03:26:05.194Z,11.2
2019-05-15T03:27:10.036Z,11.1
2019-05-15T03:28:12.206Z,11
2019-05-15T03:29:14.074Z,11.3
2019-05-15T03:30:22.459Z,11.7
2019-05-15T03:32:24.700Z,11.8
2019-05-15T03:33:54.509Z,11.9
2019-05-15T03:35:06.294Z,12.5
2019-05-15T03:36:15.135Z,12.3
2019-05-15T03:37:23.583Z,13.1
2019-05-15T03:38:29.157Z,13
2019-05-15T03:39:31.676Z,12.4
2019-05-15T03:40:33.534Z,13
2019-05-15T03:41:35.398Z,12.1
2019-05-15T03:42:41.023Z,13
2019-05-15T03:43:42.882Z,12.7
2019-05-15T03:44:44.751Z,12.3
2019-05-15T03:45:50.180Z,13.2
2019-05-15T03:46:52.042Z,13.2
2019-05-15T03:47:53.644Z,11.9
2019-05-15T03:48:54.956Z,12.3
2019-05-15T03:49:59.862Z,12.3
2019-05-15T03:51:01.839Z,12.4
2019-05-15T03:52:03.685Z,11.9
2019-05-15T03:53:05.547Z,12.9
2019-05-15T03:54:10.279Z,12
2019-05-15T03:55:12.372Z,12.4
2019-05-15T03:56:14.223Z,11.9
2019-05-15T03:57:23.728Z,12.8
2019-05-15T03:58:28.466Z,12.6
2019-05-15T03:59:30.673Z,12.8
2019-05-15T04:00:32.263Z,12.2
2019-05-15T04:01:44.583Z,11.9
2019-05-15T04:02:49.703Z,11.7
2019-05-15T04:03:51.599Z,11.7
2019-05-15T04:05:02.446Z,11.5
2019-05-15T04:06:04.018Z,10.7
2019-05-15T04:07:09.699Z,11.6
2019-05-15T04:08:12.380Z,11.5
2019-05-15T04:09:14.252Z,12.1
2019-05-15T04:10:19.733Z,11.4
2019-05-15T04:11:21.736Z,11.4
2019-05-15T04:12:23.321Z,10.7
2019-05-15T04:13:25.183Z,10.8
2019-05-15T04:14:30.040Z,11.2
2019-05-15T04:15:31.898Z,11.1
2019-05-15T04:16:33.760Z,11.1
2019-05-15T04:17:35.630Z,11.3
2019-05-15T04:18:40.517Z,11.1
2019-05-15T04:19:42.377Z,11.1
2019-05-15T04:20:44.236Z,11.4
2019-05-15T04:21:49.809Z,11.4
2019-05-15T04:22:51.659Z,11.1
2019-05-15T04:23:53.508Z,10.9
2019-05-15T04:24:55.371Z,11.4
2019-05-15T04:26:00.372Z,11.5
2019-05-15T04:27:10.450Z,11.9
2019-05-15T04:28:12.328Z,12.4
2019-05-15T04:29:14.188Z,12.3
2019-05-15T04:30:18.776Z,11.9
2019-05-15T04:31:20.884Z,11.2
2019-05-15T04:32:22.753Z,11.9
2019-05-15T04:33:24.050Z,12.5
2019-05-15T04:34:28.799Z,12.4
2019-05-15T04:35:30.899Z,12.6
2019-05-15T04:36:32.488Z,12.6
2019-05-15T04:37:34.070Z,11.4
2019-05-15T04:38:39.786Z,11.7
2019-05-15T04:39:41.666Z,11.6
2019-05-15T04:40:43.243Z,12.1
2019-05-15T04:41:45.102Z,11.5
2019-05-15T04:42:50.242Z,11.4
2019-05-15T04:43:52.123Z,11.7
2019-05-15T04:44:53.718Z,11.3
2019-05-15T04:45:59.025Z,11.5
2019-05-15T04:47:04.491Z,11.9
2019-05-15T04:48:10.686Z,11.8
2019-05-15T04:49:12.612Z,11.6
2019-05-15T04:50:14.484Z,11.8
2019-05-15T04:51:19.487Z,13
2019-05-15T04:52:21.347Z,12.1
2019-05-15T04:53:23.217Z,13
2019-05-15T04:54:25.121Z,12.7
2019-05-15T04:55:30.334Z,12.3
2019-05-15T04:56:32.194Z,12.3
2019-05-15T04:57:35.374Z,12.1
2019-05-15T04:58:41.162Z,13.3
2019-05-15T04:59:43.033Z,12.5
2019-05-15T05:00:44.932Z,12
2019-05-15T05:01:46.769Z,12.6
2019-05-15T05:02:50.734Z,12.2
2019-05-15T05:03:52.330Z,12.2
2019-05-15T05:04:54.187Z,12.3
2019-05-15T05:05:59.589Z,12.7
2019-05-15T05:07:01.191Z,12.2
2019-05-15T05:08:03.050Z,13
2019-05-15T05:09:04.909Z,13
2019-05-15T05:10:10.831Z,12.7
2019-05-15T05:11:12.700Z,12.7
2019-05-15T05:12:14.560Z,12.5
2019-05-15T05:13:19.386Z,12.5
2019-05-15T05:14:21.970Z,12.8
2019-05-15T05:15:23.546Z,11.9
2019-05-15T05:16:26.058Z,13.1
2019-05-15T05:17:30.833Z,12.4
2019-05-15T05:18:32.685Z,11.8
2019-05-15T05:19:34.544Z,12
2019-05-15T05:20:38.696Z,11.8
2019-05-15T05:21:39.999Z,11.7
2019-05-15T05:22:41.861Z,12.3
2019-05-15T05:23:43.720Z,11.7
2019-05-15T05:24:47.690Z,12
2019-05-15T05:25:50.362Z,12
2019-05-15T05:26:52.224Z,11.7
2019-05-15T05:27:54.081Z,12.1
2019-05-15T05:29:01.722Z,12.5
2019-05-15T05:30:03.579Z,11.9
2019-05-15T05:31:05.437Z,12
2019-05-15T05:32:10.260Z,12.1
2019-05-15T05:33:11.838Z,12
2019-05-15T05:34:13.698Z,11.7
2019-05-15T05:35:15.278Z,12
2019-05-15T05:36:19.507Z,12.3
2019-05-15T05:37:21.126Z,11.4
2019-05-15T05:38:22.978Z,12.3
2019-05-15T05:39:24.878Z,12.1
2019-05-15T05:40:29.130Z,11.2
2019-05-15T05:41:31.131Z,11.9
2019-05-15T05:42:32.988Z,11.7
2019-05-15T05:43:34.846Z,12.2
2019-05-15T05:44:43.254Z,11.9
2019-05-15T05:45:44.834Z,10.8
2019-05-15T05:46:46.134Z,11.9
2019-05-15T05:47:50.507Z,11.4
2019-05-15T05:48:52.367Z,11.3
2019-05-15T05:49:54.226Z,11.6
2019-05-15T05:50:58.902Z,11.1
2019-05-15T05:52:00.489Z,11.3
2019-05-15T05:53:02.072Z,10.8
2019-05-15T05:54:03.934Z,11.2
2019-05-15T05:55:05.792Z,11.5
2019-05-15T05:56:10.155Z,10.8
2019-05-15T05:57:11.738Z,11
2019-05-15T05:58:13.598Z,10.7
2019-05-15T05:59:15.190Z,11.6
2019-05-15T06:00:19.092Z,12
2019-05-15T06:01:20.688Z,10.8
2019-05-15T06:02:22.299Z,10.8
2019-05-15T06:03:23.907Z,11
2019-05-15T06:04:27.761Z,10.6
2019-05-15T06:05:29.711Z,11.8
2019-05-15T06:06:31.571Z,11.3
2019-05-15T06:07:39.026Z,11.4
2019-05-15T06:08:40.881Z,11.4
2019-05-15T06:09:42.738Z,11.3
2019-05-15T06:10:44.616Z,10.5
2019-05-15T06:11:48.660Z,11
2019-05-15T06:12:50.703Z,10.6
2019-05-15T06:13:53.610Z,10.6
2019-05-15T06:14:57.931Z,11.5
2019-05-15T06:16:00.189Z,10.7
2019-05-15T06:17:02.051Z,11
2019-05-15T06:18:03.934Z,10.8
2019-05-15T06:19:08.103Z,11.2
2019-05-15T06:20:10.031Z,11
2019-05-15T06:21:11.892Z,10.7
2019-05-15T06:22:13.753Z,10.6
2019-05-15T06:23:22.132Z,10.8
2019-05-15T06:24:31.436Z,10.5
2019-05-15T06:25:33.398Z,10.5
2019-05-15T06:26:34.980Z,10.1
2019-05-15T06:27:39.422Z,10.7
2019-05-15T06:28:41.299Z,10.7
2019-05-15T06:29:43.159Z,10.5
2019-05-15T06:30:45.018Z,10.7
2019-05-15T06:31:49.304Z,10.6
2019-05-15T06:33:13.731Z,10.8
2019-05-15T06:34:17.681Z,10.2
2019-05-15T06:35:20.444Z,10.5
2019-05-15T06:36:22.331Z,10.4
2019-05-15T06:37:24.190Z,10.6
2019-05-15T06:38:30.577Z,10.4
2019-05-15T06:39:32.730Z,10.6
2019-05-15T06:40:34.589Z,10.3
2019-05-15T06:41:38.820Z,10.4
2019-05-15T06:42:40.823Z,10.3
2019-05-15T06:43:42.684Z,10.1
2019-05-15T06:44:44.275Z,10
2019-05-15T06:45:48.453Z,10
2019-05-15T06:46:50.614Z,10
2019-05-15T06:47:52.494Z,10.3
2019-05-15T06:48:54.340Z,9.3
2019-05-15T06:49:58.464Z,10.1
2019-05-15T06:51:00.328Z,10.4
2019-05-15T06:52:02.188Z,9.9
2019-05-15T06:53:04.046Z,9.3
2019-05-15T06:54:11.767Z,10
2019-05-15T06:55:13.628Z,10.6
2019-05-15T06:56:15.210Z,10.2
2019-05-15T06:57:19.459Z,10
2019-05-15T06:58:21.321Z,10.2
2019-05-15T06:59:28.544Z,10.5
2019-05-15T07:00:30.551Z,10.4
2019-05-15T07:01:32.412Z,9.7
2019-05-15T07:02:34.276Z,9.5
2019-05-15T07:03:36.134Z,9.8
2019-05-15T07:04:40.627Z,9.6
2019-05-15T07:05:42.642Z,9.8
2019-05-15T07:06:44.505Z,10
2019-05-15T07:07:48.680Z,9.6
2019-05-15T07:08:50.886Z,8.9
2019-05-15T07:09:52.748Z,9.3
2019-05-15T07:10:54.607Z,9.2
2019-05-15T07:11:58.882Z,9
2019-05-15T07:13:00.577Z,8.9
2019-05-15T07:14:02.439Z,9.6
2019-05-15T07:15:04.298Z,9
2019-05-15T07:16:08.620Z,9.5
2019-05-15T07:17:10.412Z,9
2019-05-15T07:18:12.269Z,8.8
2019-05-15T07:19:14.129Z,9.6
2019-05-15T07:20:15.719Z,9.2
2019-05-15T07:21:21.305Z,9.5
2019-05-15T07:22:23.167Z,9.2
2019-05-15T07:23:31.313Z,9.6
2019-05-15T07:24:33.177Z,9.1
2019-05-15T07:25:35.029Z,9
2019-05-15T07:26:39.798Z,8.5
2019-05-15T07:27:41.657Z,8.5
2019-05-15T07:28:43.516Z,8.7
2019-05-15T07:29:45.372Z,8.5
2019-05-15T07:30:49.963Z,9
2019-05-15T07:31:51.825Z,9
2019-05-15T07:32:53.694Z,8.5
2019-05-15T07:33:55.542Z,8.7
2019-05-15T07:34:58.675Z,9.1
2019-05-15T07:36:00.535Z,9.3
2019-05-15T07:37:02.395Z,9.3
2019-05-15T07:38:04.254Z,9.3
2019-05-15T07:39:08.227Z,8.8
2019-05-15T07:40:09.934Z,9.5
2019-05-15T07:41:11.797Z,9.7
2019-05-15T07:42:13.403Z,9.3
2019-05-15T07:43:14.421Z,9.9
2019-05-15T07:44:18.598Z,9.5
2019-05-15T07:45:20.981Z,9.1
2019-05-15T07:46:22.842Z,9.4
2019-05-15T07:47:24.699Z,8.7
2019-05-15T07:48:28.969Z,8.8
2019-05-15T07:49:30.631Z,9.3
2019-05-15T07:50:32.490Z,8.9
2019-05-15T07:51:34.354Z,9.3
2019-05-15T07:52:36.215Z,9.4
2019-05-15T07:53:40.506Z,9.1
2019-05-15T07:54:41.804Z,9.5
2019-05-15T07:55:43.692Z,9.9
2019-05-15T07:56:45.547Z,9.1
2019-05-15T07:57:50.534Z,9.1
2019-05-15T07:58:53.915Z,9.3
2019-05-15T07:59:55.774Z,9.1
2019-05-15T08:01:00.062Z,8.4
2019-05-15T08:02:01.933Z,8.9
2019-05-15T08:03:03.792Z,8.7
2019-05-15T08:04:32.965Z,8.1
2019-05-15T08:05:34.737Z,8.1
2019-05-15T08:06:39.825Z,8.6
2019-05-15T08:07:41.685Z,8.1
2019-05-15T08:08:43.548Z,8.3
2019-05-15T08:09:45.406Z,8.3
2019-05-15T08:10:50.297Z,8.6
2019-05-15T08:11:52.165Z,9.4
2019-05-15T08:12:54.023Z,8.7
2019-05-15T08:13:57.992Z,9.3
2019-05-15T08:15:00.054Z,9
2019-05-15T08:16:01.390Z,8.9
2019-05-15T08:17:02.963Z,8.8
2019-05-15T08:18:13.326Z,8.5
2019-05-15T08:19:15.184Z,8.6
2019-05-15T08:20:19.698Z,8.6
2019-05-15T08:21:21.286Z,8.5
2019-05-15T08:22:22.856Z,8.5
2019-05-15T08:23:24.716Z,8.6
2019-05-15T08:24:30.628Z,8.7
2019-05-15T08:25:38.757Z,8
2019-05-15T08:26:46.380Z,7.7
2019-05-15T08:27:49.441Z,7.6
2019-05-15T08:28:51.035Z,8.3
2019-05-15T08:29:52.616Z,8.3
2019-05-15T08:30:54.511Z,8.7
2019-05-15T08:31:58.746Z,8.7
2019-05-15T08:33:00.826Z,9.1
2019-05-15T08:34:19.258Z,9
2019-05-15T08:35:21.289Z,9.2
2019-05-15T08:36:22.873Z,9.4
2019-05-15T08:37:24.730Z,9.3
2019-05-15T08:38:28.986Z,8.9
2019-05-15T08:39:30.897Z,8.8
2019-05-15T08:40:32.757Z,8.4
2019-05-15T08:41:34.619Z,9.5
2019-05-15T08:42:42.348Z,9.5
2019-05-15T08:43:44.184Z,9.3
2019-05-15T08:44:45.762Z,9.3
2019-05-15T08:45:50.570Z,8.9
2019-05-15T08:46:52.442Z,8.1
2019-05-15T08:47:54.299Z,8.2
2019-05-15T08:48:58.815Z,8.6
2019-05-15T08:50:00.719Z,8.6
2019-05-15T08:51:02.611Z,8.5
2019-05-15T08:52:10.353Z,8.7
2019-05-15T08:53:11.960Z,8.2
2019-05-15T08:54:13.542Z,8.4
2019-05-15T08:55:15.400Z,8.3
2019-05-15T08:56:20.239Z,8.5
2019-05-15T08:57:22.108Z,8.3
2019-05-15T08:58:23.971Z,7.9
2019-05-15T08:59:25.830Z,7.9
2019-05-15T09:00:30.754Z,7.9
2019-05-15T09:01:32.075Z,8.6
2019-05-15T09:02:33.649Z,8.2
2019-05-15T09:03:35.232Z,7.8
2019-05-15T09:04:39.784Z,8.4
2019-05-15T09:05:41.646Z,8.1
2019-05-15T09:06:43.535Z,7.9
2019-05-15T09:07:45.443Z,9.1
2019-05-15T09:08:49.971Z,8.5
2019-05-15T09:09:51.835Z,8.6
2019-05-15T09:10:53.695Z,8.6
2019-05-15T09:11:55.554Z,8.7
2019-05-15T09:12:59.289Z,8.6
2019-05-15T09:14:01.149Z,8.1
2019-05-15T09:15:03.018Z,8.1
2019-05-15T09:16:04.878Z,7.9
2019-05-15T09:17:09.174Z,8
2019-05-15T09:18:20.603Z,8
2019-05-15T09:19:22.218Z,8.6
2019-05-15T09:20:24.229Z,7.4
2019-05-15T09:21:28.232Z,8.1
2019-05-15T09:22:30.286Z,7.8
2019-05-15T09:23:31.601Z,8
2019-05-15T09:24:33.201Z,7.8
2019-05-15T09:25:35.063Z,7.3
2019-05-15T09:26:40.873Z,6.9
2019-05-15T09:27:42.737Z,7.3
2019-05-15T09:28:44.601Z,7.3
2019-05-15T09:29:48.861Z,7.2
2019-05-15T09:30:50.772Z,7.3
2019-05-15T09:31:52.364Z,7.1
2019-05-15T09:32:54.220Z,7.6
2019-05-15T09:33:58.370Z,8
2019-05-15T09:35:00.468Z,7.1
2019-05-15T09:36:02.329Z,7.4
2019-05-15T09:37:04.002Z,7
2019-05-15T09:38:05.574Z,7.3
2019-05-15T09:39:13.696Z,7
2019-05-15T09:40:15.012Z,6.8
2019-05-15T09:41:18.820Z,7
2019-05-15T09:42:20.700Z,6.7
2019-05-15T09:43:22.558Z,7.6
2019-05-15T09:44:24.434Z,7.3
2019-05-15T09:45:28.510Z,6.8
2019-05-15T09:46:30.202Z,7
2019-05-15T09:47:31.557Z,7.7
2019-05-15T09:48:32.856Z,7.6
2019-05-15T09:49:34.715Z,7.6
2019-05-15T09:50:39.471Z,7.2
2019-05-15T09:51:41.258Z,7.5
2019-05-15T09:52:42.842Z,7.4
2019-05-15T09:53:44.723Z,8.2
2019-05-15T09:54:49.564Z,7.7
2019-05-15T09:55:51.145Z,7.9
2019-05-15T09:56:52.721Z,7.4
2019-05-15T09:57:58.834Z,7.4
2019-05-15T09:59:00.918Z,7.5
2019-05-15T10:00:02.504Z,7.1
2019-05-15T10:01:04.373Z,7.1
2019-05-15T10:02:06.299Z,7.6
2019-05-15T10:03:10.652Z,7.7
2019-05-15T10:04:12.511Z,7.9
2019-05-15T10:05:13.806Z,8.1
2019-05-15T10:06:15.395Z,8
2019-05-15T10:07:19.987Z,8.2
2019-05-15T10:08:22.588Z,7.9
2019-05-15T10:09:24.160Z,7.3
2019-05-15T10:10:28.301Z,7.2
2019-05-15T10:11:30.051Z,7.1
2019-05-15T10:12:39.027Z,7
2019-05-15T10:13:40.615Z,7
2019-05-15T10:14:42.490Z,7.2
2019-05-15T10:15:50.990Z,7.3
2019-05-15T10:16:53.106Z,6.9
2019-05-15T10:17:54.690Z,6.5
2019-05-15T10:18:58.804Z,6.7
2019-05-15T10:20:00.678Z,6.9
2019-05-15T10:21:02.309Z,7.3
2019-05-15T10:22:04.226Z,7.5
2019-05-15T10:23:09.229Z,7.3
2019-05-15T10:24:10.551Z,6.7
2019-05-15T10:25:12.410Z,6.8
2019-05-15T10:26:15.423Z,7
2019-05-15T10:27:19.056Z,6.9
2019-05-15T10:28:20.916Z,7.2
2019-05-15T10:29:22.778Z,6.4
2019-05-15T10:30:24.366Z,6.2
2019-05-15T10:31:29.248Z,6.7
2019-05-15T10:32:30.833Z,6.7
2019-05-15T10:33:32.420Z,6.3
2019-05-15T10:34:34.296Z,7
2019-05-15T10:35:35.881Z,6.8
2019-05-15T10:36:40.376Z,7
2019-05-15T10:37:42.239Z,6.6
2019-05-15T10:38:44.216Z,5.8
2019-05-15T10:39:48.922Z,5.9
2019-05-15T10:41:15.384Z,5.7
2019-05-15T10:42:20.297Z,6.2
2019-05-15T10:43:22.423Z,5.7
2019-05-15T10:44:24.315Z,6.5
2019-05-15T10:45:26.175Z,6.5
2019-05-15T10:46:30.874Z,6.5
2019-05-15T10:47:32.737Z,6.6
2019-05-15T10:48:34.543Z,6.4
2019-05-15T10:49:38.812Z,6.1
2019-05-15T10:50:40.779Z,6.4
2019-05-15T10:51:42.643Z,5.9
2019-05-15T10:52:44.238Z,6.3
2019-05-15T10:53:48.469Z,5.8
2019-05-15T10:54:50.670Z,5.3
2019-05-15T10:55:52.525Z,5.8
2019-05-15T10:56:54.094Z,5.9
2019-05-15T10:57:55.982Z,6.6
2019-05-15T10:58:59.907Z,6.5
2019-05-15T11:00:01.775Z,6.2
2019-05-15T11:01:04.934Z,6.5
2019-05-15T11:02:09.478Z,6.4
2019-05-15T11:03:11.339Z,6.3
2019-05-15T11:04:12.914Z,5.9
2019-05-15T11:05:14.777Z,6.3
2019-05-15T11:06:18.820Z,6.1
2019-05-15T11:07:20.703Z,6.2
2019-05-15T11:08:22.566Z,6.8
2019-05-15T11:09:24.438Z,7
2019-05-15T11:10:28.803Z,6.5
2019-05-15T11:11:30.832Z,6.5
2019-05-15T11:12:32.695Z,6.2
2019-05-15T11:13:34.557Z,6.1
2019-05-15T11:14:38.882Z,5.9
2019-05-15T11:15:43.558Z,6
2019-05-15T11:16:48.402Z,5.7
2019-05-15T11:17:50.162Z,5.9
2019-05-15T11:18:54.227Z,6.4
2019-05-15T11:19:55.806Z,6.3
2019-05-15T11:21:00.453Z,6.3
2019-05-15T11:22:02.061Z,6.7
2019-05-15T11:23:03.944Z,7
2019-05-15T11:24:05.800Z,6.4
2019-05-15T11:25:10.944Z,6.9
2019-05-15T11:26:12.807Z,6
2019-05-15T11:27:14.671Z,6
2019-05-15T11:28:15.991Z,6.4
2019-05-15T11:29:17.853Z,6.6
2019-05-15T11:30:20.337Z,6.3
2019-05-15T11:31:28.440Z,7
2019-05-15T11:32:30.545Z,6.3
2019-05-15T11:33:32.629Z,6.5
2019-05-15T11:34:34.506Z,5.7
2019-05-15T11:35:36.101Z,5.6
2019-05-15T11:36:41.768Z,6.5
2019-05-15T11:37:57.096Z,5.9
2019-05-15T11:38:59.149Z,6.2
2019-05-15T11:40:01.075Z,6.3
2019-05-15T11:41:05.696Z,6
2019-05-15T11:42:10.046Z,6.6
2019-05-15T11:43:11.634Z,6.6
2019-05-15T11:44:13.214Z,6.2
2019-05-15T11:45:15.079Z,6.2
2019-05-15T11:46:19.489Z,5.7
2019-05-15T11:47:21.064Z,5.9
2019-05-15T11:48:22.933Z,6
2019-05-15T11:49:24.796Z,6.3
2019-05-15T11:50:30.277Z,6
2019-05-15T11:51:32.133Z,6.3
2019-05-15T11:52:40.937Z,6.4
2019-05-15T11:53:42.796Z,5.9
2019-05-15T11:54:44.661Z,7.1
2019-05-15T11:55:49.083Z,6.2
2019-05-15T11:56:50.949Z,6.8
2019-05-15T11:57:56.572Z,6.8
2019-05-15T11:59:00.916Z,6.4
2019-05-15T12:00:05.134Z,6
2019-05-15T12:01:09.874Z,6.3
2019-05-15T12:02:11.855Z,6.9
2019-05-15T12:03:13.724Z,5.9
2019-05-15T12:04:34.488Z,5.8
2019-05-15T12:05:38.902Z,6.3
2019-05-15T12:06:40.785Z,5.7
2019-05-15T12:07:42.648Z,6.3
2019-05-15T12:08:44.511Z,6
2019-05-15T12:09:46.373Z,5.9
2019-05-15T12:10:47.965Z,5.8
2019-05-15T12:11:49.825Z,5.1
2019-05-15T12:12:51.691Z,5.5
2019-05-15T12:13:53.556Z,5.4
2019-05-15T12:14:55.423Z,5.3
2019-05-15T12:15:59.753Z,5.1
2019-05-15T12:17:16.009Z,5.9
2019-05-15T12:18:20.324Z,5.6
2019-05-15T12:19:22.191Z,5.9
2019-05-15T12:20:24.051Z,6.3
2019-05-15T12:21:28.375Z,5.4
2019-05-15T12:22:30.160Z,6.1
2019-05-15T12:23:32.024Z,6
2019-05-15T12:24:41.083Z,6.9
2019-05-15T12:25:42.973Z,6.3
2019-05-15T12:26:44.562Z,6
2019-05-15T12:27:49.518Z,6.3
2019-05-15T12:28:51.380Z,6.1
2019-05-15T12:29:53.242Z,6.1
2019-05-15T12:30:55.104Z,6.8
2019-05-15T12:32:36.514Z,6.9
2019-05-15T12:35:41.017Z,6.4
2019-05-15T12:38:58.005Z,6.7
2019-05-15T13:00:38.824Z,7.2
2019-05-15T13:01:40.687Z,7.2
2019-05-15T13:02:42.550Z,7
2019-05-15T13:03:44.412Z,7
2019-05-15T13:04:46.285Z,7.1
2019-05-15T13:05:49.650Z,6.4
2019-05-15T13:07:19.857Z,6.3
2019-05-15T13:08:21.792Z,7.4
2019-05-15T13:09:23.656Z,6.4
2019-05-15T13:10:25.521Z,6.3
2019-05-15T13:11:29.462Z,6
2019-05-15T13:12:31.332Z,6.3
2019-05-15T13:13:33.195Z,6.3
2019-05-15T13:14:35.058Z,7.1
2019-05-15T13:15:42.113Z,6.7
2019-05-15T13:16:43.980Z,6.1
2019-05-15T13:17:45.840Z,6
2019-05-15T13:18:53.552Z,5.9
2019-05-15T13:19:55.125Z,6.3
2019-05-15T13:21:00.304Z,6.3
2019-05-15T13:22:02.178Z,5.8
2019-05-15T13:23:04.069Z,6.8
2019-05-15T13:24:07.971Z,6.1
2019-05-15T13:25:09.971Z,6.2
2019-05-15T13:26:27.598Z,5.5
2019-05-15T13:27:29.460Z,5.8
2019-05-15T13:28:31.334Z,6.2
2019-05-15T13:29:33.184Z,5.9
2019-05-15T13:30:41.603Z,6.6
2019-05-15T13:31:43.596Z,6.7
2019-05-15T13:32:45.466Z,6.7
2019-05-15T13:33:49.120Z,7.1
2019-05-15T13:34:50.997Z,7.2
2019-05-15T13:35:52.569Z,7.2
2019-05-15T13:36:54.435Z,7
2019-05-15T13:37:59.067Z,6.5
2019-05-15T13:39:00.653Z,6.3
2019-05-15T13:40:02.247Z,6.1
2019-05-15T13:41:04.149Z,5.7
2019-05-15T13:42:06.047Z,6.3
2019-05-15T13:43:09.413Z,5.8
2019-05-15T13:44:11.276Z,5.6
2019-05-15T13:45:14.528Z,5.8
2019-05-15T13:46:20.956Z,6
2019-05-15T13:47:22.794Z,5.9
2019-05-15T13:48:24.835Z,6
2019-05-15T13:49:29.054Z,5.5
2019-05-15T13:50:30.923Z,5.5
2019-05-15T13:51:32.789Z,5.3
2019-05-15T13:52:34.395Z,5.2
2019-05-15T13:53:38.288Z,5.1
2019-05-15T13:54:40.292Z,5.3
2019-05-15T13:55:43.944Z,5.7
2019-05-15T13:56:45.552Z,5.1
2019-05-15T13:57:49.609Z,5.6
2019-05-15T13:58:51.465Z,5.7
2019-05-15T13:59:53.346Z,5.2
2019-05-15T14:00:54.905Z,5.9
2019-05-15T14:01:59.859Z,5.6
2019-05-15T14:03:01.718Z,6.1
2019-05-15T14:04:03.635Z,5.8
2019-05-15T14:05:05.246Z,5.8
2019-05-15T14:06:10.707Z,6.3
2019-05-15T14:07:12.567Z,6.3
2019-05-15T14:08:14.427Z,5.8
2019-05-15T14:09:16.289Z,6.1
2019-05-15T14:10:19.126Z,5.6
2019-05-15T14:11:22.819Z,5.7
2019-05-15T14:12:24.414Z,5.9
2019-05-15T14:13:29.106Z,5.8
2019-05-15T14:14:30.413Z,6.1
2019-05-15T14:15:31.706Z,5.6
2019-05-15T14:16:33.571Z,5.9
2019-05-15T14:17:37.549Z,6.2
2019-05-15T14:18:40.120Z,6.3
2019-05-15T14:19:41.982Z,6
2019-05-15T14:20:43.849Z,5.5
2019-05-15T14:21:46.099Z,5.5
2019-05-15T14:22:50.498Z,5.6
2019-05-15T14:23:52.363Z,5.5
2019-05-15T14:24:54.238Z,5.3
2019-05-15T14:25:55.815Z,5.8
2019-05-15T14:27:00.459Z,6
2019-05-15T14:28:02.333Z,5.6
2019-05-15T14:29:09.430Z,6.3
2019-05-15T14:30:11.318Z,5.8
2019-05-15T14:31:13.218Z,5.9
2019-05-15T14:32:15.084Z,6
2019-05-15T14:33:19.110Z,5.8
2019-05-15T14:34:21.737Z,6
2019-05-15T14:35:24.050Z,6.3
2019-05-15T14:36:28.294Z,6.8
2019-05-15T14:37:30.570Z,6.5
2019-05-15T14:38:32.433Z,5.3
2019-05-15T14:39:34.020Z,6
2019-05-15T14:40:35.887Z,5.2
2019-05-15T14:41:39.290Z,5.1
2019-05-15T14:42:41.157Z,5.1
2019-05-15T14:43:43.021Z,5.5
2019-05-15T14:44:45.188Z,4.7
2019-05-15T14:45:49.408Z,4.5
2019-05-15T14:46:52.031Z,4.4
2019-05-15T14:47:53.069Z,4.5
2019-05-15T14:48:54.663Z,4.6
2019-05-15T14:49:58.964Z,4.3
2019-05-15T14:51:00.831Z,4.8